Time;durP1;ratioP1;P1;durP2;ratioP2;P2;SDS_P1;SDS_P2;PMS_P1;PMS_P2;Temp;Humidity;BMP_temperature;BMP_pressure;BME280_temperature;BME280_humidity;BME280_pressure;Samples;Min_cycle;Max_cycle;Signal;HPM_P1;HPM_P2
2022/11/28 00:02:03;;;;;;;;;;;;;;;16.99;48.74;101737.28;5055146;28;1112;-42
2022/11/28 00:04:28;;;;;;;;;;;;;;;16.39;49.98;101731.38;5055083;28;1136;-45
2022/11/28 00:06:54;;;;;;;;;;;;;;;16.21;50.80;101734.34;5054101;28;1104;-42
2022/11/28 00:09:19;;;;;;;;;;;;;;;17.79;46.77;101729.50;5054676;28;979;-44
2022/11/28 00:11:45;;;;;;;;;;;;;;;16.86;49.11;101726.63;5055279;28;1152;-45
2022/11/28 00:14:11;;;;;;;;;;;;;;;16.40;50.31;101732.22;5057433;28;1112;-42
2022/11/28 00:16:36;;;;;;;;;;;;;;;17.36;48.09;101736.69;5057703;28;1972;-42
2022/11/28 00:19:02;;;;;;;;;;;;;;;17.07;48.54;101725.03;5058370;28;1128;-43
2022/11/28 00:21:27;;;;;;;;;;;;;;;16.54;49.71;101721.75;5058251;28;1139;-43
2022/11/28 00:23:53;;;;;;;;;;;;;;;16.22;50.66;101719.56;5057518;28;2169;-44
2022/11/28 00:26:22;;;;;;;;;;;;;;;17.65;47.36;101721.88;5057550;28;1175;-43
2022/11/28 00:28:48;;;;;;;;;;;;;;;16.79;49.37;101717.69;5057615;28;1073;-44
2022/11/28 00:31:14;;;;;;;;;;;;;;;16.35;50.31;101708.25;5058109;28;1203;-46
2022/11/28 00:33:40;;;;;;;;;;;;;;;16.32;50.47;101708.75;5057172;28;1206;-45
2022/11/28 00:36:05;;;;;;;;;;;;;;;17.66;47.05;101707.88;5057738;28;1918;-45
2022/11/28 00:38:31;;;;;;;;;;;;;;;16.69;49.34;101708.25;5057578;28;1060;-42
2022/11/28 00:40:57;;;;;;;;;;;;;;;16.31;50.12;101712.56;5057362;28;1092;-44
2022/11/28 00:43:22;;;;;;;;;;;;;;;16.40;50.07;101699.28;5057457;28;1092;-42
2022/11/28 00:45:48;;;;;;;;;;;;;;;17.27;47.80;101702.47;5057917;28;1120;-41
2022/11/28 00:48:13;;;;;;;;;;;;;;;16.48;50.04;101700.75;5057133;28;1179;-45
2022/11/28 00:50:38;;;;;;;;;;;;;;;16.17;50.40;101698.34;5057246;28;1120;-42
2022/11/28 00:53:04;;;;;;;;;;;;;;;16.45;50.21;101695.78;5057066;28;1975;-42
2022/11/28 00:55:29;;;;;;;;;;;;;;;17.53;47.28;101680.75;5057340;28;1136;-45
2022/11/28 00:57:55;;;;;;;;;;;;;;;16.56;49.61;101686.59;5056796;28;1997;-42
2022/11/28 01:00:20;;;;;;;;;;;;;;;16.24;50.37;101689.94;5057297;28;1116;-41
2022/11/28 01:02:46;;;;;;;;;;;;;;;16.95;48.92;101685.84;5057450;28;1084;-44
2022/11/28 01:05:11;;;;;;;;;;;;;;;17.16;48.15;101689.69;5056631;28;1253;-45
2022/11/28 01:07:41;;;;;;;;;;;;;;;16.44;49.77;101678.47;5056969;28;1112;-43
2022/11/28 01:10:06;;;;;;;;;;;;;;;16.17;50.69;101678.31;5056790;28;1088;-42
2022/11/28 01:12:32;;;;;;;;;;;;;;;17.36;47.76;101681.69;5056765;28;1135;-46
2022/11/28 01:14:58;;;;;;;;;;;;;;;16.88;48.83;101664.84;5056804;28;1097;-43
2022/11/28 01:17:23;;;;;;;;;;;;;;;16.40;49.79;101680.88;5057168;28;1917;-45
2022/11/28 01:19:49;;;;;;;;;;;;;;;16.86;48.97;101679.91;5056218;28;1092;-45
2022/11/28 01:22:14;;;;;;;;;;;;;;;17.34;47.52;101670.09;5055913;28;1828;-46
2022/11/28 01:24:40;;;;;;;;;;;;;;;16.53;49.45;101663.22;5051156;28;967;-43
2022/11/28 01:27:07;;;;;;;;;;;;;;;16.22;50.38;101675.66;5049580;28;1156;-42
2022/11/28 01:29:32;;;;;;;;;;;;;;;16.08;50.67;101654.00;5055719;28;1184;-41
2022/11/28 01:31:57;;;;;;;;;;;;;;;17.68;46.90;101664.41;5056864;28;1140;-46
2022/11/28 01:34:23;;;;;;;;;;;;;;;16.84;48.85;101663.66;5056080;28;1097;-44
2022/11/28 01:36:48;;;;;;;;;;;;;;;16.35;50.24;101653.34;5056396;28;1914;-44
2022/11/28 01:39:14;;;;;;;;;;;;;;;16.08;50.70;101640.28;5056727;28;1100;-40
2022/11/28 01:41:40;;;;;;;;;;;;;;;17.39;47.73;101645.44;5056420;28;1127;-44
2022/11/28 01:44:14;;;;;;;;;;;;;;;16.93;48.44;101637.47;5055912;28;1076;-41
2022/11/28 01:46:39;;;;;;;;;;;;;;;16.32;50.08;101629.16;5056679;28;870;-42
2022/11/28 01:49:13;;;;;;;;;;;;;;;16.11;50.67;101632.66;5056199;28;1100;-43
2022/11/28 01:51:39;;;;;;;;;;;;;;;17.53;47.18;101612.88;5038357;28;1816;-42
2022/11/28 01:54:04;;;;;;;;;;;;;;;16.62;49.53;101618.88;5056653;28;953;-43
2022/11/28 01:56:40;;;;;;;;;;;;;;;16.35;50.01;101611.34;5056299;28;1914;-41
2022/11/28 01:59:06;;;;;;;;;;;;;;;17.49;47.23;101602.63;5038492;28;876;-43
2022/11/28 02:01:31;;;;;;;;;;;;;;;16.63;49.19;101604.88;5038060;28;1171;-42
2022/11/28 02:03:57;;;;;;;;;;;;;;;16.25;50.25;101603.78;5055678;28;1112;-41
2022/11/28 02:06:23;;;;;;;;;;;;;;;17.02;48.63;101607.63;5055675;28;1186;-43
2022/11/28 02:08:49;;;;;;;;;;;;;;;17.17;47.87;101608.91;5038419;28;1160;-43
2022/11/28 02:11:20;;;;;;;;;;;;;;;16.43;50.03;101599.94;5055943;28;886;-41
2022/11/28 02:14:04;;;;;;;;;;;;;;;16.14;50.74;101594.56;5037955;28;1125;-41
2022/11/28 02:16:33;;;;;;;;;;;;;;;17.65;47.02;101598.13;5055882;28;1921;-41
2022/11/28 02:19:05;;;;;;;;;;;;;;;16.72;49.34;101597.88;5038342;28;1064;-47
2022/11/28 02:21:49;;;;;;;;;;;;;;;16.30;50.27;101595.66;5054946;28;1159;-45
2022/11/28 02:24:14;;;;;;;;;;;;;;;16.03;50.82;101596.34;5035625;28;1109;-42
2022/11/28 02:26:59;;;;;;;;;;;;;;;17.24;48.24;101604.03;5055341;28;1093;-42
2022/11/28 02:29:43;;;;;;;;;;;;;;;16.77;49.05;101600.69;5055337;28;1120;-42
2022/11/28 02:32:20;;;;;;;;;;;;;;;16.19;50.57;101589.16;5055091;28;1353;-44
2022/11/28 02:34:46;;;;;;;;;;;;;;;17.31;47.90;101588.16;5054080;28;989;-42
2022/11/28 02:37:13;;;;;;;;;;;;;;;17.03;48.52;101586.47;5055199;28;1977;-44
2022/11/28 02:39:43;;;;;;;;;;;;;;;16.41;49.87;101586.47;5037407;28;1113;-45
2022/11/28 02:42:17;;;;;;;;;;;;;;;16.13;50.51;101583.84;5037451;28;1096;-42
2022/11/28 02:44:54;;;;;;;;;;;;;;;16.66;49.40;101581.56;5037648;28;1116;-46
2022/11/28 02:47:32;;;;;;;;;;;;;;;17.48;47.25;101576.25;5037673;28;933;-43
2022/11/28 02:50:24;;;;;;;;;;;;;;;16.50;49.53;101570.38;5037605;28;1160;-48
2022/11/28 02:52:58;;;;;;;;;;;;;;;16.15;50.59;101568.78;5052785;28;2007;-44
2022/11/28 02:55:24;;;;;;;;;;;;;;;17.71;46.90;101573.16;5037282;28;1092;-42
2022/11/28 02:57:50;;;;;;;;;;;;;;;16.74;48.91;101575.66;5036995;28;1906;-48
2022/11/28 03:00:21;;;;;;;;;;;;;;;16.32;50.06;101578.94;5041036;28;1065;-47
2022/11/28 03:02:48;;;;;;;;;;;;;;;16.05;50.70;101579.63;5054690;28;1072;-45
2022/11/28 03:05:24;;;;;;;;;;;;;;;16.85;49.12;101577.44;5036854;28;1137;-44
2022/11/28 03:07:49;;;;;;;;;;;;;;;17.09;47.93;101574.44;5037252;28;1156;-46
2022/11/28 03:10:44;;;;;;;;;;;;;;;16.46;49.68;101568.41;5054541;28;1096;-44
2022/11/28 03:13:28;;;;;;;;;;;;;;;16.05;50.64;101574.13;5044867;28;1623;-44
2022/11/28 03:15:56;;;;;;;;;;;;;;;17.35;47.66;101566.47;5055149;28;1898;-45
2022/11/28 03:18:26;;;;;;;;;;;;;;;16.87;48.67;101572.53;5055197;28;1139;-49
2022/11/28 03:21:21;;;;;;;;;;;;;;;16.32;49.82;101574.25;5037117;28;1152;-42
2022/11/28 03:23:59;;;;;;;;;;;;;;;16.87;48.98;101566.19;5045025;28;2199;-47
2022/11/28 03:26:45;;;;;;;;;;;;;;;17.03;47.97;101576.31;5055340;28;1120;-43
2022/11/28 03:29:11;;;;;;;;;;;;;;;16.32;50.00;101560.53;5037421;28;1163;-44
2022/11/28 03:31:41;;;;;;;;;;;;;;;16.70;49.24;101560.75;5038188;28;1077;-44
2022/11/28 03:34:07;;;;;;;;;;;;;;;17.25;47.47;101557.03;5036225;28;1229;-45
2022/11/28 03:36:52;;;;;;;;;;;;;;;16.48;49.53;101558.00;5021190;28;1973;-45
2022/11/28 03:39:19;;;;;;;;;;;;;;;16.11;50.54;101553.09;5055186;28;1269;-48
2022/11/28 03:41:46;;;;;;;;;;;;;;;16.55;49.58;101562.25;5037337;28;1088;-45
2022/11/28 03:44:19;;;;;;;;;;;;;;;17.24;47.28;101549.06;5036685;28;1101;-42
2022/11/28 03:46:45;;;;;;;;;;;;;;;16.42;49.35;101557.94;5039747;28;1097;-45
2022/11/28 03:49:12;;;;;;;;;;;;;;;16.16;50.24;101555.91;5058975;28;1155;-45
2022/11/28 03:51:41;;;;;;;;;;;;;;;17.68;46.49;101553.59;5058990;28;1789;-47
2022/11/28 03:54:07;;;;;;;;;;;;;;;16.63;49.12;101546.41;5040056;28;882;-44
2022/11/28 03:56:39;;;;;;;;;;;;;;;16.28;49.86;101559.38;5040368;28;1959;-44
2022/11/28 03:59:31;;;;;;;;;;;;;;;16.65;49.26;101553.31;5058634;28;1096;-44
2022/11/28 04:02:23;;;;;;;;;;;;;;;17.33;47.32;101552.97;5041050;28;1272;-43
2022/11/28 04:04:54;;;;;;;;;;;;;;;16.41;49.52;101550.78;5030262;28;1227;-45
2022/11/28 04:07:27;;;;;;;;;;;;;;;16.15;49.97;101562.50;5040790;28;1140;-44
2022/11/28 04:09:58;;;;;;;;;;;;;;;17.35;47.27;101561.81;5058151;28;1140;-47
2022/11/28 04:12:44;;;;;;;;;;;;;;;16.82;48.25;101564.22;5039946;28;1132;-42
2022/11/28 04:15:14;;;;;;;;;;;;;;;16.24;49.76;101558.22;5056198;28;1541;-44
2022/11/28 04:17:54;;;;;;;;;;;;;;;16.86;48.26;101565.38;5030061;28;1929;-48
2022/11/28 04:20:25;;;;;;;;;;;;;;;17.05;47.68;101573.31;5040450;28;1085;-45
2022/11/28 04:22:51;;;;;;;;;;;;;;;16.38;49.34;101570.53;5057813;28;1881;-46
2022/11/28 04:25:17;;;;;;;;;;;;;;;16.10;49.95;101563.22;5057092;28;1088;-48
2022/11/28 04:27:45;;;;;;;;;;;;;;;16.29;49.72;101566.53;5040062;28;1113;-46
2022/11/28 04:30:11;;;;;;;;;;;;;;;17.42;46.66;101551.44;5039565;28;1184;-46
2022/11/28 04:32:37;;;;;;;;;;;;;;;16.49;49.21;101559.66;5027052;28;1172;-49
2022/11/28 04:35:04;;;;;;;;;;;;;;;16.14;50.02;101547.91;5033866;28;1330;-53
2022/11/28 04:37:29;;;;;;;;;;;;;;;17.45;46.95;101558.34;5033311;28;1989;-47
2022/11/28 04:39:55;;;;;;;;;;;;;;;16.61;48.64;101557.63;5052129;28;1018;-55
2022/11/28 04:42:21;;;;;;;;;;;;;;;16.18;49.75;101556.50;5034815;28;1080;-52
2022/11/28 04:44:51;;;;;;;;;;;;;;;16.23;49.68;101570.31;5049603;28;1081;-56
2022/11/28 04:47:17;;;;;;;;;;;;;;;17.36;46.63;101555.25;5056881;28;1139;-53
2022/11/28 04:49:42;;;;;;;;;;;;;;;16.42;49.18;101549.72;5050418;28;1162;-51
2022/11/28 04:52:11;;;;;;;;;;;;;;;16.11;49.69;101553.91;5052071;28;1953;-52
2022/11/28 04:54:36;;;;;;;;;;;;;;;17.56;46.10;101559.28;5056318;28;1167;-56
2022/11/28 04:57:03;;;;;;;;;;;;;;;16.56;48.66;101549.31;5055232;28;2028;-50
2022/11/28 04:59:29;;;;;;;;;;;;;;;16.23;49.45;101556.56;5029613;28;1046;-53
2022/11/28 05:01:54;;;;;;;;;;;;;;;16.98;47.86;101562.50;5037603;28;1271;-53
2022/11/28 05:04:20;;;;;;;;;;;;;;;17.07;47.41;101560.16;5031858;28;1395;-55
2022/11/28 05:06:45;;;;;;;;;;;;;;;16.36;49.24;101558.13;5038263;28;978;-53
2022/11/28 05:09:11;;;;;;;;;;;;;;;16.08;49.78;101555.25;5056968;28;1077;-52
2022/11/28 05:11:37;;;;;;;;;;;;;;;17.41;46.47;101557.19;5055629;28;1151;-53
2022/11/28 05:14:02;;;;;;;;;;;;;;;16.70;48.31;101567.06;5053105;28;1195;-53
2022/11/28 05:16:28;;;;;;;;;;;;;;;16.23;49.39;101562.06;5055445;28;1906;-54
2022/11/28 05:18:53;;;;;;;;;;;;;;;16.87;47.92;101571.69;5042729;28;1254;-54
2022/11/28 05:21:19;;;;;;;;;;;;;;;17.32;46.44;101556.84;5044300;28;1265;-52
2022/11/28 05:23:44;;;;;;;;;;;;;;;16.45;48.64;101553.03;5046988;28;1894;-51
2022/11/28 05:26:11;;;;;;;;;;;;;;;16.16;49.60;101567.72;5050701;28;1211;-51
2022/11/28 05:28:36;;;;;;;;;;;;;;;17.60;45.96;101558.47;5055807;28;1234;-53
2022/11/28 05:31:01;;;;;;;;;;;;;;;16.85;47.80;101571.13;5055965;28;1251;-54
2022/11/28 05:33:28;;;;;;;;;;;;;;;16.32;49.10;101555.03;5056919;28;1120;-53
2022/11/28 05:35:53;;;;;;;;;;;;;;;16.10;49.67;101567.88;5055885;28;1906;-53
2022/11/28 05:38:18;;;;;;;;;;;;;;;16.33;48.97;101564.13;5052182;28;1167;-54
2022/11/28 05:40:44;;;;;;;;;;;;;;;17.52;46.02;101550.69;5056224;28;1124;-53
2022/11/28 05:43:10;;;;;;;;;;;;;;;16.51;48.33;101560.22;5056044;28;1093;-54
2022/11/28 05:45:41;;;;;;;;;;;;;;;16.17;49.45;101552.06;5056130;28;1132;-53
2022/11/28 05:48:07;;;;;;;;;;;;;;;17.48;46.14;101565.25;5052113;28;991;-54
2022/11/28 05:50:32;;;;;;;;;;;;;;;16.79;47.43;101563.88;5054383;28;1103;-52
2022/11/28 05:52:58;;;;;;;;;;;;;;;16.29;48.85;101561.03;5054651;28;1285;-52
2022/11/28 05:55:23;;;;;;;;;;;;;;;16.87;47.59;101569.78;5055674;28;1107;-54
2022/11/28 05:57:48;;;;;;;;;;;;;;;17.10;46.78;101576.13;5055101;28;1898;-53
2022/11/28 06:00:14;;;;;;;;;;;;;;;16.41;48.42;101571.91;5055555;28;967;-52
2022/11/28 06:02:40;;;;;;;;;;;;;;;16.10;49.22;101573.38;5056081;28;1007;-52
2022/11/28 06:05:06;;;;;;;;;;;;;;;17.28;46.56;101567.50;5052432;28;1216;-53
2022/11/28 06:07:31;;;;;;;;;;;;;;;16.81;47.52;101573.53;5047070;28;950;-51
2022/11/28 06:09:56;;;;;;;;;;;;;;;16.31;48.63;101578.06;5066813;28;1132;-52
2022/11/28 06:12:22;;;;;;;;;;;;;;;16.37;48.85;101585.31;5052560;28;1260;-53
2022/11/28 06:14:47;;;;;;;;;;;;;;;17.54;45.66;101570.50;5049482;28;854;-52
2022/11/28 06:17:13;;;;;;;;;;;;;;;16.58;47.79;101561.72;5054729;28;1909;-50
2022/11/28 06:19:38;;;;;;;;;;;;;;;16.23;48.94;101570.31;5055193;28;1100;-52
2022/11/28 06:22:04;;;;;;;;;;;;;;;17.37;46.13;101565.13;5054094;28;1948;-54
2022/11/28 06:24:29;;;;;;;;;;;;;;;16.81;47.18;101572.72;5054520;28;1255;-55
2022/11/28 06:26:55;;;;;;;;;;;;;;;16.26;48.50;101572.53;5054756;28;1447;-51
2022/11/28 06:29:20;;;;;;;;;;;;;;;17.48;46.09;101563.31;5054758;28;1132;-54
2022/11/28 06:31:45;;;;;;;;;;;;;;;16.44;48.81;101552.19;5055009;28;1112;-53
2022/11/28 06:34:11;;;;;;;;;;;;;;;17.14;46.70;101569.03;5051953;28;1227;-53
2022/11/28 06:36:37;;;;;;;;;;;;;;;16.41;48.15;101553.53;5054774;28;1918;-56
2022/11/28 06:39:03;;;;;;;;;;;;;;;16.15;47.98;101554.25;5052092;28;1332;-52
2022/11/28 06:41:29;;;;;;;;;;;;;;;17.16;46.79;101555.00;5055335;28;1183;-55
2022/11/28 06:43:55;;;;;;;;;;;;;;;16.39;48.09;101558.44;5055197;28;1136;-55
2022/11/28 06:46:21;;;;;;;;;;;;;;;17.05;47.24;101548.56;5055174;28;1267;-55
2022/11/28 06:48:47;;;;;;;;;;;;;;;16.95;47.18;101557.53;5055404;28;888;-55
2022/11/28 06:51:13;;;;;;;;;;;;;;;16.64;48.02;101557.13;5055791;28;1171;-54
2022/11/28 06:53:38;;;;;;;;;;;;;;;18.39;44.13;101557.97;5054203;28;1263;-54
2022/11/28 06:56:08;;;;;;;;;;;;;;;16.87;47.36;101556.03;5055783;28;1967;-55
2022/11/28 06:58:33;;;;;;;;;;;;;;;16.53;47.58;101556.16;5055715;28;1081;-55
2022/11/28 07:01:09;;;;;;;;;;;;;;;17.68;45.75;101548.09;5053695;28;876;-55
2022/11/28 07:03:35;;;;;;;;;;;;;;;16.65;47.36;101553.31;5055450;28;1155;-53
2022/11/28 07:06:01;;;;;;;;;;;;;;;16.75;47.71;101553.41;5055636;28;1136;-56
2022/11/28 07:08:26;;;;;;;;;;;;;;;16.96;47.52;101534.47;5054442;28;1151;-51
2022/11/28 07:10:52;;;;;;;;;;;;;;;17.02;47.53;101538.09;5055001;28;1244;-55
2022/11/28 07:13:17;;;;;;;;;;;;;;;18.58;44.03;101528.03;5055152;28;913;-55
2022/11/28 07:15:49;;;;;;;;;;;;;;;17.15;46.75;101539.59;5054995;28;1120;-55
2022/11/28 07:18:15;;;;;;;;;;;;;;;16.79;47.62;101536.41;5055445;28;1080;-56
2022/11/28 07:20:40;;;;;;;;;;;;;;;17.16;47.00;101522.03;5038518;28;1085;-54
2022/11/28 07:23:06;;;;;;;;;;;;;;;16.62;47.57;101526.34;5059580;28;2063;-54
2022/11/28 07:25:31;;;;;;;;;;;;;;;17.82;45.81;101527.28;5059488;28;857;-55
2022/11/28 07:27:58;;;;;;;;;;;;;;;16.82;47.51;101533.19;5045143;28;1018;-51
2022/11/28 07:30:23;;;;;;;;;;;;;;;17.47;46.85;101519.56;5058554;28;1123;-53
2022/11/28 07:32:49;;;;;;;;;;;;;;;17.72;45.56;101521.72;5058737;28;1120;-56
2022/11/28 07:35:14;;;;;;;;;;;;;;;16.81;47.33;101523.28;5058789;28;1199;-55
2022/11/28 07:37:40;;;;;;;;;;;;;;;17.94;45.58;101536.22;5044801;28;1913;-54
2022/11/28 07:40:05;;;;;;;;;;;;;;;17.09;47.19;101523.06;5038762;28;1256;-54
2022/11/28 07:42:31;;;;;;;;;;;;;;;16.58;47.26;101527.94;5038571;28;1215;-54
2022/11/28 07:45:02;;;;;;;;;;;;;;;17.71;46.01;101518.16;5020664;28;1180;-53
2022/11/28 07:47:28;;;;;;;;;;;;;;;16.73;47.58;101525.41;5044978;28;1235;-55
2022/11/28 07:49:54;;;;;;;;;;;;;;;16.93;47.58;101519.31;5058191;28;1247;-51
2022/11/28 07:52:19;;;;;;;;;;;;;;;17.12;47.14;101518.97;5057959;28;1807;-54
2022/11/28 07:54:44;;;;;;;;;;;;;;;16.60;47.51;101528.50;5058551;28;1037;-53
2022/11/28 07:57:10;;;;;;;;;;;;;;;16.38;47.46;101521.13;5058630;28;1906;-56
2022/11/28 07:59:35;;;;;;;;;;;;;;;17.16;47.02;101517.38;5058192;28;1255;-50
2022/11/28 08:02:01;;;;;;;;;;;;;;;16.52;47.55;101516.06;5058122;28;1235;-51
2022/11/28 08:04:26;;;;;;;;;;;;;;;17.93;45.85;101515.28;5058996;28;1135;-51
2022/11/28 08:06:51;;;;;;;;;;;;;;;17.25;46.82;101517.72;5058287;28;1120;-55
2022/11/28 08:09:18;;;;;;;;;;;;;;;16.71;47.32;101516.56;5056353;28;1095;-55
2022/11/28 08:11:43;;;;;;;;;;;;;;;17.69;46.20;101512.06;5056826;28;1187;-55
2022/11/28 08:14:09;;;;;;;;;;;;;;;17.08;47.21;101513.19;5056378;28;1191;-55
2022/11/28 08:16:35;;;;;;;;;;;;;;;16.72;48.01;101525.66;5057654;28;1941;-53
2022/11/28 08:19:01;;;;;;;;;;;;;;;17.99;45.42;101516.16;5058263;28;1269;-53
2022/11/28 08:21:27;;;;;;;;;;;;;;;16.93;47.42;101511.09;5056884;28;1611;-57
2022/11/28 08:23:53;;;;;;;;;;;;;;;16.62;46.92;101509.88;5057955;28;2156;-56
2022/11/28 08:26:22;;;;;;;;;;;;;;;17.37;46.67;101501.88;5056481;28;910;-56
2022/11/28 08:28:49;;;;;;;;;;;;;;;16.77;47.39;101490.00;5058706;28;1084;-56
2022/11/28 08:31:19;;;;;;;;;;;;;;;17.29;47.31;101507.84;5057839;28;1128;-56
2022/11/28 08:33:45;;;;;;;;;;;;;;;17.23;46.80;101503.41;5057048;28;1211;-56
2022/11/28 08:36:10;;;;;;;;;;;;;;;16.93;47.64;101500.09;5057762;28;1965;-57
2022/11/28 08:38:36;;;;;;;;;;;;;;;18.43;44.27;101487.50;5057559;28;892;-56
2022/11/28 08:41:05;;;;;;;;;;;;;;;17.15;46.81;101490.97;5057815;28;1143;-56
2022/11/28 08:43:30;;;;;;;;;;;;;;;18.29;44.74;101498.16;5057832;28;1092;-56
2022/11/28 08:45:56;;;;;;;;;;;;;;;17.95;45.65;101493.03;5057604;28;1167;-56
2022/11/28 08:48:21;;;;;;;;;;;;;;;17.19;46.64;101499.53;5047870;28;1093;-56
2022/11/28 08:50:47;;;;;;;;;;;;;;;16.91;46.53;101495.94;5051068;28;1045;-56
2022/11/28 08:53:12;;;;;;;;;;;;;;;17.96;45.70;101500.16;5056388;28;1891;-57
2022/11/28 08:55:40;;;;;;;;;;;;;;;17.20;46.92;101487.44;5057583;28;1412;-55
2022/11/28 08:58:05;;;;;;;;;;;;;;;16.80;46.86;101494.97;5041540;28;1969;-55
2022/11/28 09:00:30;;;;;;;;;;;;;;;16.53;46.98;101486.69;5037053;28;1325;-56
2022/11/28 09:02:56;;;;;;;;;;;;;;;17.73;46.35;101488.44;5041074;28;1253;-57
2022/11/28 09:05:21;;;;;;;;;;;;;;;16.96;47.35;101490.50;5042164;28;1278;-55
2022/11/28 09:07:47;;;;;;;;;;;;;;;17.87;45.94;101483.31;5038116;28;1337;-56
2022/11/28 09:10:12;;;;;;;;;;;;;;;18.20;45.17;101475.84;5041592;28;1138;-57
2022/11/28 09:12:38;;;;;;;;;;;;;;;17.23;46.78;101490.50;5042986;28;1312;-56
2022/11/28 09:15:03;;;;;;;;;;;;;;;16.92;46.69;101498.44;5039876;28;1221;-56
2022/11/28 09:17:29;;;;;;;;;;;;;;;17.86;46.00;101502.84;5038624;28;1906;-56
2022/11/28 09:19:54;;;;;;;;;;;;;;;17.00;47.35;101496.31;5042609;28;1387;-56
2022/11/28 09:22:19;;;;;;;;;;;;;;;18.10;45.68;101495.88;5043179;28;1885;-56
2022/11/28 09:24:45;;;;;;;;;;;;;;;17.85;45.86;101492.91;5042475;28;1340;-56
2022/11/28 09:27:10;;;;;;;;;;;;;;;16.99;47.14;101481.75;5042970;28;1297;-56
2022/11/28 09:29:36;;;;;;;;;;;;;;;17.73;46.38;101484.88;5037609;28;1289;-57
2022/11/28 09:32:01;;;;;;;;;;;;;;;17.15;47.10;101487.41;5039128;28;1359;-55
2022/11/28 09:34:27;;;;;;;;;;;;;;;17.02;47.63;101480.41;5041290;28;1272;-55
2022/11/28 09:36:52;;;;;;;;;;;;;;;17.88;46.00;101473.13;5039190;28;1902;-56
2022/11/28 09:39:18;;;;;;;;;;;;;;;17.05;47.10;101458.72;5042578;28;1276;-56
2022/11/28 09:42:03;;;;;;;;;;;;;;;16.75;46.73;101462.78;5039328;28;1257;-56
2022/11/28 09:44:49;;;;;;;;;;;;;;;17.58;46.30;101449.81;5040687;28;1257;-57
2022/11/28 09:47:24;;;;;;;;;;;;;;;16.85;47.16;101431.84;5042886;28;1482;-55
2022/11/28 09:49:57;;;;;;;;;;;;;;;17.87;46.12;101424.72;5049221;28;1116;-56
2022/11/28 09:52:31;;;;;;;;;;;;;;;16.92;47.32;101416.00;5045882;28;2000;-56
2022/11/28 09:55:06;;;;;;;;;;;;;;;18.63;44.54;101420.63;5031614;28;1109;-53
2022/11/28 09:57:50;;;;;;;;;;;;;;;17.84;45.73;101416.97;5040728;28;1967;-56
2022/11/28 10:00:22;;;;;;;;;;;;;;;17.14;46.99;101425.28;5049679;28;1092;-50
2022/11/28 10:02:57;;;;;;;;;;;;;;;17.56;46.90;101422.59;5038483;28;949;-47
2022/11/28 10:05:34;;;;;;;;;;;;;;;17.44;46.75;101409.03;5056028;28;1084;-51
2022/11/28 10:08:38;;;;;;;;;;;;;;;16.86;47.90;101410.72;5038097;28;1061;-51
2022/11/28 10:11:09;;;;;;;;;;;;;;;17.82;46.15;101397.16;4974953;28;1262;-52
2022/11/28 10:13:37;;;;;;;;;;;;;;;17.10;46.80;101398.31;4959022;28;1118;-55
2022/11/28 10:16:21;;;;;;;;;;;;;;;18.41;44.84;101405.16;5002635;28;1922;-57
2022/11/28 10:18:47;;;;;;;;;;;;;;;17.11;47.03;101385.44;5041258;28;1116;-54
2022/11/28 10:21:31;;;;;;;;;;;;;;;16.76;47.27;101390.31;5018157;28;1239;-56
2022/11/28 10:23:58;;;;;;;;;;;;;;;18.03;45.89;101382.44;5055879;28;2226;-55
2022/11/28 10:26:24;;;;;;;;;;;;;;;17.13;47.19;101390.66;5037867;28;1136;-54
2022/11/28 10:28:50;;;;;;;;;;;;;;;16.85;46.83;101381.59;5055901;28;1080;-53
2022/11/28 10:31:22;;;;;;;;;;;;;;;17.08;47.38;101381.28;5037328;28;1200;-53
2022/11/28 10:33:49;;;;;;;;;;;;;;;17.08;47.19;101384.03;5055671;28;1175;-53
2022/11/28 10:36:17;;;;;;;;;;;;;;;16.69;46.89;101378.69;5037409;28;1938;-54
2022/11/28 10:38:43;;;;;;;;;;;;;;;17.56;46.44;101364.03;5055610;28;1191;-55
2022/11/28 10:41:11;;;;;;;;;;;;;;;16.76;47.54;101360.09;5055159;28;1144;-54
2022/11/28 10:43:42;;;;;;;;;;;;;;;17.87;46.15;101375.19;5055680;28;1093;-54
2022/11/28 10:46:08;;;;;;;;;;;;;;;17.53;46.79;101370.88;5055860;28;1105;-53
2022/11/28 10:48:52;;;;;;;;;;;;;;;16.90;47.52;101367.91;5055621;28;1172;-54
2022/11/28 10:51:24;;;;;;;;;;;;;;;18.19;45.55;101376.97;5054258;28;934;-56
2022/11/28 10:54:03;;;;;;;;;;;;;;;17.18;46.99;101396.19;5055413;28;2241;-57
2022/11/28 10:56:29;;;;;;;;;;;;;;;17.22;47.32;101376.16;5026379;28;2001;-56
2022/11/28 10:58:57;;;;;;;;;;;;;;;17.54;46.53;101371.69;5035454;28;1168;-58
2022/11/28 11:01:34;;;;;;;;;;;;;;;16.95;47.30;101361.66;5037358;28;1144;-58
2022/11/28 11:04:00;;;;;;;;;;;;;;;18.51;44.60;101363.06;5037732;28;1128;-58
2022/11/28 11:06:25;;;;;;;;;;;;;;;17.32;46.81;101372.66;5035652;28;1181;-58
2022/11/28 11:08:51;;;;;;;;;;;;;;;16.91;47.00;101366.84;5049686;28;1069;-58
2022/11/28 11:11:24;;;;;;;;;;;;;;;17.75;46.51;101356.97;5045444;28;1175;-58
2022/11/28 11:13:54;;;;;;;;;;;;;;;17.06;47.36;101346.91;5046832;28;1242;-58
2022/11/28 11:16:20;;;;;;;;;;;;;;;16.77;47.11;101349.91;5035650;28;2056;-58
2022/11/28 11:18:46;;;;;;;;;;;;;;;17.25;47.36;101350.91;5036008;28;1227;-57
2022/11/28 11:21:21;;;;;;;;;;;;;;;17.25;47.10;101358.31;5053489;28;1196;-57
2022/11/28 11:23:47;;;;;;;;;;;;;;;17.19;47.73;101364.88;5047271;28;2059;-57
2022/11/28 11:26:22;;;;;;;;;;;;;;;18.39;44.72;101349.53;5054268;28;1285;-59
2022/11/28 11:28:49;;;;;;;;;;;;;;;17.26;46.82;101354.47;5036816;28;1382;-58
2022/11/28 11:31:18;;;;;;;;;;;;;;;17.38;47.03;101335.88;5017436;28;1089;-54
2022/11/28 11:33:44;;;;;;;;;;;;;;;17.50;46.56;101343.06;5016592;28;1263;-52
2022/11/28 11:36:39;;;;;;;;;;;;;;;16.92;47.20;101343.78;5044907;28;1969;-54
2022/11/28 11:39:05;;;;;;;;;;;;;;;18.02;45.78;101350.53;5043825;28;1202;-54
2022/11/28 11:41:31;;;;;;;;;;;;;;;17.07;46.89;101354.06;5052618;28;1270;-55
2022/11/28 11:44:07;;;;;;;;;;;;;;;16.83;46.65;101348.91;5034180;28;1188;-54
2022/11/28 11:46:33;;;;;;;;;;;;;;;17.43;46.74;101354.31;5017002;28;1331;-53
2022/11/28 11:48:58;;;;;;;;;;;;;;;16.84;47.24;101352.47;5016089;28;1385;-57
2022/11/28 11:51:27;;;;;;;;;;;;;;;18.30;45.36;101356.69;5047832;28;1172;-56
2022/11/28 11:54:03;;;;;;;;;;;;;;;17.23;46.83;101349.50;5054370;28;2182;-55
2022/11/28 11:56:29;;;;;;;;;;;;;;;17.68;46.76;101347.31;5054546;28;1898;-54
2022/11/28 11:58:55;;;;;;;;;;;;;;;18.03;45.47;101335.66;5036423;28;1227;-58
2022/11/28 12:01:20;;;;;;;;;;;;;;;17.18;46.71;101313.72;5036603;28;1314;-54
2022/11/28 12:04:00;;;;;;;;;;;;;;;16.90;46.48;101327.56;5053865;28;1251;-55
2022/11/28 12:06:31;;;;;;;;;;;;;;;16.70;46.11;101341.06;5037706;28;1220;-55
2022/11/28 12:09:07;;;;;;;;;;;;;;;17.65;46.10;101332.16;5040274;28;1311;-55
2022/11/28 12:11:34;;;;;;;;;;;;;;;17.02;47.09;101324.63;5030681;28;1176;-57
2022/11/28 12:14:03;;;;;;;;;;;;;;;16.61;47.09;101324.25;5037874;28;1243;-55
2022/11/28 12:16:47;;;;;;;;;;;;;;;17.41;46.65;101329.00;5040357;28;1981;-55
2022/11/28 12:19:24;;;;;;;;;;;;;;;16.66;47.47;101324.31;5039920;28;1239;-55
2022/11/28 12:22:10;;;;;;;;;;;;;;;18.42;44.99;101334.38;5028680;28;2318;-56
2022/11/28 12:24:56;;;;;;;;;;;;;;;17.09;47.13;101336.19;5057678;28;1251;-55
2022/11/28 12:27:31;;;;;;;;;;;;;;;18.07;45.71;101338.69;5056924;28;1164;-55
2022/11/28 12:29:59;;;;;;;;;;;;;;;17.42;46.72;101341.66;5057655;28;1229;-55
2022/11/28 12:32:45;;;;;;;;;;;;;;;16.91;46.78;101337.47;5058108;28;1195;-56
2022/11/28 12:35:26;;;;;;;;;;;;;;;18.01;45.70;101345.28;5056880;28;1398;-53
2022/11/28 12:37:56;;;;;;;;;;;;;;;17.02;46.98;101349.34;5058440;28;1969;-58
2022/11/28 12:40:42;;;;;;;;;;;;;;;17.03;47.23;101345.50;5039480;28;1006;-57
2022/11/28 12:43:11;;;;;;;;;;;;;;;17.12;47.24;101353.28;5040193;28;1155;-55
2022/11/28 12:45:36;;;;;;;;;;;;;;;18.23;45.29;101356.94;5057298;28;1267;-55
2022/11/28 12:48:02;;;;;;;;;;;;;;;18.85;43.52;101348.75;5056075;28;1089;-54
2022/11/28 12:50:30;;;;;;;;;;;;;;;17.49;46.42;101346.91;5054988;28;969;-56
2022/11/28 12:53:02;;;;;;;;;;;;;;;17.16;46.27;101357.16;5048598;28;2491;-55
2022/11/28 12:55:38;;;;;;;;;;;;;;;16.86;46.13;101353.03;5038952;28;1100;-52
2022/11/28 12:58:09;;;;;;;;;;;;;;;17.73;45.78;101345.41;5039859;28;1902;-52